createdAt,value
2018-12-25T00:01:27.430Z,6.77
2018-12-25T00:04:07.950Z,6.37
2018-12-25T00:06:48.289Z,6.30
2018-12-25T00:09:28.730Z,6.23
2018-12-25T00:12:09.121Z,6.37
2018-12-25T00:14:49.833Z,5.83
2018-12-25T00:17:28.684Z,5.57
2018-12-25T00:20:16.616Z,5.63
2018-12-25T00:23:04.480Z,6.13
2018-12-25T00:31:43.979Z,5.50
2018-12-25T00:34:33.569Z,5.60
2018-12-25T00:37:21.466Z,5.43
2018-12-25T00:43:16.235Z,5.60
2018-12-25T00:46:04.100Z,5.00
2018-12-25T00:48:45.190Z,5.37
2018-12-25T00:51:25.864Z,6.43
2018-12-25T00:54:06.271Z,7.73
2018-12-25T00:56:46.714Z,6.57
2018-12-25T00:59:27.123Z,6.13
2018-12-25T01:02:07.681Z,5.57
2018-12-25T01:04:48.284Z,5.80
2018-12-25T01:07:28.835Z,5.50
2018-12-25T01:10:09.869Z,5.50
2018-12-25T01:12:50.944Z,5.60
2018-12-25T01:15:31.670Z,5.87
2018-12-25T01:18:12.246Z,5.20
2018-12-25T01:20:53.095Z,5.67
2018-12-25T01:23:33.817Z,5.73
2018-12-25T01:26:14.509Z,5.33
2018-12-25T01:28:55.341Z,5.23
2018-12-25T01:31:35.821Z,5.70
2018-12-25T01:34:16.319Z,6.00
2018-12-25T01:36:56.777Z,5.07
2018-12-25T01:39:37.444Z,5.20
2018-12-25T01:42:18.283Z,5.70
2018-12-25T01:44:58.855Z,5.17
2018-12-25T01:47:39.356Z,5.07
2018-12-25T01:50:19.924Z,5.87
2018-12-25T01:53:00.786Z,5.03
2018-12-25T01:55:41.193Z,5.73
2018-12-25T01:58:21.855Z,5.97
2018-12-25T02:01:02.453Z,6.23
2018-12-25T02:03:43.115Z,5.20
2018-12-25T02:06:23.738Z,5.40
2018-12-25T02:09:04.283Z,5.27
2018-12-25T02:11:45.201Z,5.47
2018-12-25T02:14:25.890Z,4.87
2018-12-25T02:17:06.230Z,5.50
2018-12-25T02:19:47.098Z,5.80
2018-12-25T02:22:27.596Z,5.57
2018-12-25T02:25:08.313Z,5.03
2018-12-25T02:27:48.865Z,5.23
2018-12-25T02:30:29.760Z,5.00
2018-12-25T02:33:10.380Z,5.03
2018-12-25T02:35:50.745Z,5.50
2018-12-25T02:38:31.226Z,4.97
2018-12-25T02:41:11.603Z,5.83
2018-12-25T02:43:52.854Z,5.00
2018-12-25T02:46:33.295Z,5.33
2018-12-25T02:49:13.839Z,5.10
2018-12-25T02:51:54.712Z,5.40
2018-12-25T02:54:35.231Z,5.20
2018-12-25T02:57:16.024Z,5.73
2018-12-25T02:59:56.592Z,5.40
2018-12-25T03:02:37.385Z,5.83
2018-12-25T03:05:18.030Z,5.40
2018-12-25T03:07:58.715Z,5.73
2018-12-25T03:10:40.353Z,5.10
2018-12-25T03:13:21.604Z,5.17
2018-12-25T03:16:02.207Z,5.43
2018-12-25T03:18:41.100Z,5.40
2018-12-25T03:21:28.955Z,5.63
2018-12-25T03:30:04.489Z,5.20
2018-12-25T03:32:52.340Z,5.83
2018-12-25T03:35:40.215Z,5.93
2018-12-25T03:38:28.054Z,7.10
2018-12-25T03:41:15.927Z,5.67
2018-12-25T03:47:10.711Z,4.93
2018-12-25T03:49:51.381Z,5.00
2018-12-25T03:52:32.259Z,4.83
2018-12-25T03:55:12.914Z,4.70
2018-12-25T03:57:53.439Z,5.03
2018-12-25T04:00:34.204Z,4.87
2018-12-25T04:03:14.891Z,5.23
2018-12-25T04:05:55.330Z,5.00
2018-12-25T04:08:35.651Z,5.07
2018-12-25T04:11:16.036Z,5.10
2018-12-25T04:13:56.799Z,4.60
2018-12-25T04:16:37.440Z,5.23
2018-12-25T04:19:18.327Z,4.73
2018-12-25T04:21:58.694Z,5.10
2018-12-25T04:24:40.469Z,4.80
2018-12-25T04:27:21.483Z,5.40
2018-12-25T04:30:02.152Z,4.83
2018-12-25T04:32:42.980Z,5.03
2018-12-25T04:35:23.343Z,5.30
2018-12-25T04:38:04.675Z,4.70
2018-12-25T04:40:45.811Z,4.90
2018-12-25T04:43:26.891Z,5.10
2018-12-25T04:46:07.452Z,4.70
2018-12-25T04:48:47.916Z,5.60
2018-12-25T04:51:28.709Z,5.20
2018-12-25T04:54:09.447Z,5.37
2018-12-25T04:56:50.055Z,5.03
2018-12-25T04:59:30.358Z,6.03
2018-12-25T05:02:10.989Z,5.17
2018-12-25T05:04:51.539Z,5.37
2018-12-25T05:07:32.179Z,5.33
2018-12-25T05:10:13.265Z,5.20
2018-12-25T05:12:54.060Z,5.57
2018-12-25T05:15:34.756Z,5.43
2018-12-25T05:18:15.218Z,6.23
2018-12-25T05:20:55.996Z,6.20
2018-12-25T05:23:36.612Z,6.77
2018-12-25T05:26:17.166Z,7.03
2018-12-25T05:28:58.444Z,6.80
2018-12-25T05:31:38.990Z,6.87
2018-12-25T05:34:19.753Z,6.93
2018-12-25T05:37:00.230Z,7.33
2018-12-25T05:39:40.866Z,7.17
2018-12-25T05:42:21.341Z,7.03
2018-12-25T05:45:02.488Z,6.90
2018-12-25T05:47:43.124Z,7.90
2018-12-25T05:50:23.624Z,7.30
2018-12-25T05:53:04.224Z,7.20
2018-12-25T05:55:44.715Z,7.60
2018-12-25T05:58:25.325Z,7.23
2018-12-25T06:01:05.796Z,6.80
2018-12-25T06:03:46.663Z,6.73
2018-12-25T06:06:27.016Z,7.10
2018-12-25T06:09:08.060Z,8.07
2018-12-25T06:11:48.818Z,7.97
2018-12-25T06:14:29.620Z,7.43
2018-12-25T06:17:08.461Z,7.87
2018-12-25T06:23:04.821Z,7.67
2018-12-25T06:25:52.694Z,8.10
2018-12-25T06:28:40.545Z,8.43
2018-12-25T06:31:28.481Z,7.77
2018-12-25T06:34:30.255Z,7.87
2018-12-25T06:37:05.970Z,8.03
2018-12-25T06:39:53.816Z,7.90
2018-12-25T06:42:41.681Z,8.17
2018-12-25T06:45:29.562Z,8.20
2018-12-25T06:48:17.410Z,7.80
2018-12-25T06:51:03.730Z,8.63
2018-12-25T06:53:40.835Z,8.13
2018-12-25T06:56:21.705Z,7.17
2018-12-25T06:59:02.566Z,8.23
2018-12-25T07:01:42.831Z,8.70
2018-12-25T07:04:23.571Z,8.43
2018-12-25T07:07:04.371Z,9.00
2018-12-25T07:09:45.071Z,7.93
2018-12-25T07:12:25.830Z,7.67
2018-12-25T07:15:06.340Z,8.53
2018-12-25T07:17:47.570Z,8.87
2018-12-25T07:20:28.916Z,8.70
2018-12-25T07:23:09.778Z,8.70
2018-12-25T07:25:50.980Z,7.77
2018-12-25T07:28:31.345Z,8.20
2018-12-25T07:31:12.109Z,8.40
2018-12-25T07:33:52.663Z,8.23
2018-12-25T07:36:33.148Z,8.00
2018-12-25T07:39:13.813Z,9.03
2018-12-25T07:41:54.140Z,9.50
2018-12-25T07:44:34.658Z,8.90
2018-12-25T07:47:15.301Z,8.03
2018-12-25T07:49:55.965Z,9.53
2018-12-25T07:52:36.694Z,8.83
2018-12-25T07:55:20.669Z,9.00
2018-12-25T07:58:01.957Z,9.73
2018-12-25T08:00:42.430Z,9.70
2018-12-25T08:03:22.922Z,9.10
2018-12-25T08:06:03.467Z,8.23
2018-12-25T08:08:42.279Z,9.97
2018-12-25T08:11:30.149Z,9.37
2018-12-25T08:14:18.003Z,9.57
2018-12-25T08:20:00.017Z,9.53
2018-12-25T08:22:47.903Z,8.60
2018-12-25T08:25:36.095Z,8.30
2018-12-25T08:28:24.013Z,8.27
2018-12-25T08:34:10.379Z,8.20
2018-12-25T08:36:58.268Z,8.80
2018-12-25T08:39:46.143Z,8.90
2018-12-25T08:42:34.048Z,9.10
2018-12-25T08:45:22.036Z,8.77
2018-12-25T08:48:09.918Z,9.00
2018-12-25T08:50:57.902Z,8.37
2018-12-25T08:53:38.668Z,8.10
2018-12-25T08:56:19.648Z,8.27
2018-12-25T08:59:00.542Z,8.87
2018-12-25T09:01:40.906Z,8.20
2018-12-25T09:04:21.485Z,8.20
2018-12-25T09:07:02.309Z,8.60
2018-12-25T09:09:42.755Z,8.20
2018-12-25T09:12:23.376Z,8.67
2018-12-25T09:15:04.272Z,9.00
2018-12-25T09:17:45.012Z,7.73
2018-12-25T09:20:25.713Z,8.07
2018-12-25T09:23:06.351Z,8.60
2018-12-25T09:25:46.939Z,8.03
2018-12-25T09:28:27.388Z,7.83
2018-12-25T09:31:08.000Z,9.67
2018-12-25T09:33:48.789Z,9.23
2018-12-25T09:36:29.216Z,7.33
2018-12-25T09:39:09.653Z,7.23
2018-12-25T09:41:50.527Z,7.70
2018-12-25T09:44:31.174Z,7.30
2018-12-25T09:47:11.691Z,7.33
2018-12-25T09:49:52.150Z,7.03
2018-12-25T09:52:33.062Z,7.07
2018-12-25T09:55:13.429Z,8.07
2018-12-25T09:57:54.035Z,7.17
2018-12-25T10:00:34.693Z,7.37
2018-12-25T10:03:15.475Z,7.13
2018-12-25T10:05:56.479Z,6.83
2018-12-25T10:08:37.045Z,7.07
2018-12-25T10:11:17.663Z,7.60
2018-12-25T10:13:58.106Z,7.33
2018-12-25T10:16:38.739Z,6.90
2018-12-25T10:19:19.596Z,6.93
2018-12-25T10:22:03.149Z,7.10
2018-12-25T10:24:42.984Z,6.70
2018-12-25T10:27:21.935Z,6.83
2018-12-25T10:30:09.849Z,6.53
2018-12-25T10:32:57.744Z,6.30
2018-12-25T10:35:45.660Z,5.90
2018-12-25T10:38:33.547Z,6.13
2018-12-25T10:41:21.379Z,5.97
2018-12-25T10:44:09.279Z,5.77
2018-12-25T10:46:57.218Z,6.30
2018-12-25T10:49:45.113Z,6.10
2018-12-25T10:52:33.070Z,5.10
2018-12-25T10:55:14.180Z,5.47
2018-12-25T10:57:54.864Z,6.10
2018-12-25T11:00:35.513Z,6.07
2018-12-25T11:03:15.834Z,5.90
2018-12-25T11:05:56.409Z,5.30
2018-12-25T11:08:36.899Z,5.30
2018-12-25T11:11:17.705Z,5.40
2018-12-25T11:13:58.416Z,5.17
2018-12-25T11:16:39.189Z,5.27
2018-12-25T11:19:19.625Z,5.07
2018-12-25T11:22:00.274Z,5.70
2018-12-25T11:24:40.870Z,5.00
2018-12-25T11:27:21.705Z,5.40
2018-12-25T11:30:02.291Z,4.93
2018-12-25T11:32:42.984Z,5.00
2018-12-25T11:35:23.658Z,5.20
2018-12-25T11:38:04.357Z,4.73
2018-12-25T11:40:44.914Z,4.60
2018-12-25T11:43:25.730Z,4.63
2018-12-25T11:46:06.484Z,4.17
2018-12-25T11:48:47.058Z,4.63
2018-12-25T11:51:27.729Z,4.10
2018-12-25T11:54:08.182Z,4.43
2018-12-25T11:56:47.068Z,4.37
2018-12-25T11:59:34.979Z,4.77
2018-12-25T12:02:22.885Z,4.20
2018-12-25T12:05:10.789Z,4.43
2018-12-25T12:07:58.635Z,4.23
2018-12-25T12:10:46.524Z,4.17
2018-12-25T12:13:34.390Z,3.97
2018-12-25T12:19:15.326Z,4.10
2018-12-25T12:22:03.263Z,4.13
2018-12-25T12:24:51.094Z,4.33
2018-12-25T12:30:45.889Z,3.27
2018-12-25T12:33:33.768Z,3.60
2018-12-25T12:36:21.631Z,3.90
2018-12-25T12:42:19.503Z,3.07
2018-12-25T12:45:07.686Z,3.30
2018-12-25T12:47:55.543Z,2.80
2018-12-25T12:53:38.375Z,2.87
2018-12-25T12:56:26.386Z,2.90
2018-12-25T12:59:14.261Z,2.53
2018-12-25T13:02:02.104Z,3.53
2018-12-25T13:04:49.978Z,3.23
2018-12-25T13:07:37.903Z,3.13
2018-12-25T13:10:25.799Z,3.37
2018-12-25T13:13:13.782Z,3.77
2018-12-25T13:16:01.712Z,5.43
2018-12-25T13:18:49.671Z,3.77
2018-12-25T13:21:37.591Z,3.40
2018-12-25T13:24:25.489Z,3.30
2018-12-25T13:27:13.338Z,3.63
2018-12-25T13:32:54.572Z,3.20
2018-12-25T13:35:42.430Z,3.80
2018-12-25T13:38:30.416Z,3.57
2018-12-25T13:41:31.260Z,3.37
2018-12-25T13:44:18.734Z,3.60
2018-12-25T13:47:06.636Z,3.90
2018-12-25T13:49:54.564Z,3.37
2018-12-25T13:52:42.429Z,3.50
2018-12-25T13:55:23.472Z,4.30
2018-12-25T13:58:03.974Z,3.77
2018-12-25T14:00:44.560Z,4.17
2018-12-25T14:03:25.121Z,4.07
2018-12-25T14:06:05.714Z,4.00
2018-12-25T14:08:46.522Z,3.80
2018-12-25T14:11:26.969Z,3.73
2018-12-25T14:14:07.746Z,4.43
2018-12-25T14:16:48.545Z,4.47
2018-12-25T14:19:29.803Z,4.87
2018-12-25T14:22:11.118Z,4.23
2018-12-25T14:24:51.486Z,4.03
2018-12-25T14:27:31.852Z,3.83
2018-12-25T14:30:12.610Z,3.90
2018-12-25T14:32:53.241Z,4.50
2018-12-25T14:35:33.838Z,5.00
2018-12-25T14:38:15.071Z,4.90
2018-12-25T14:40:55.716Z,4.17
2018-12-25T14:43:36.558Z,4.47
2018-12-25T14:46:17.046Z,4.70
2018-12-25T14:48:57.409Z,3.83
2018-12-25T14:51:37.970Z,4.60
2018-12-25T14:54:19.021Z,4.53
2018-12-25T14:56:59.904Z,3.87
2018-12-25T14:59:40.735Z,4.90
2018-12-25T15:02:21.748Z,4.00
2018-12-25T15:05:02.242Z,4.00
2018-12-25T15:07:43.460Z,4.50
2018-12-25T15:10:24.384Z,4.20
2018-12-25T15:13:05.083Z,4.70
2018-12-25T15:15:45.740Z,4.93
2018-12-25T15:18:26.568Z,4.13
2018-12-25T15:21:09.360Z,4.00
2018-12-25T15:23:49.939Z,4.17
2018-12-25T15:26:30.640Z,4.40
2018-12-25T15:29:11.295Z,4.00
2018-12-25T15:31:52.053Z,3.60
2018-12-25T15:34:32.899Z,3.10
2018-12-25T15:37:13.459Z,3.60
2018-12-25T15:39:54.070Z,3.20
2018-12-25T15:42:34.960Z,3.27
2018-12-25T15:45:15.292Z,3.07
2018-12-25T15:47:55.829Z,3.77
2018-12-25T15:50:36.641Z,3.87
2018-12-25T15:53:17.854Z,3.67
2018-12-25T15:55:58.238Z,3.93
2018-12-25T15:58:38.648Z,3.80
2018-12-25T16:01:19.153Z,4.87
2018-12-25T16:03:59.699Z,4.27
2018-12-25T16:06:40.612Z,5.10
2018-12-25T16:09:21.655Z,5.43
2018-12-25T16:12:02.455Z,5.77
2018-12-25T16:14:42.929Z,6.33
2018-12-25T16:17:23.463Z,6.10
2018-12-25T16:20:03.914Z,5.50
2018-12-25T16:22:44.720Z,6.13
2018-12-25T16:25:25.285Z,6.30
2018-12-25T16:28:06.640Z,6.13
2018-12-25T16:30:47.040Z,6.40
2018-12-25T16:33:27.727Z,6.10
2018-12-25T16:36:08.857Z,6.07
2018-12-25T16:38:49.686Z,6.13
2018-12-25T16:41:30.399Z,6.30
2018-12-25T16:44:10.986Z,5.90
2018-12-25T16:46:51.669Z,6.23
2018-12-25T16:49:32.645Z,6.63
2018-12-25T16:52:13.276Z,7.03
2018-12-25T16:54:53.856Z,6.67
2018-12-25T16:57:34.736Z,6.73
2018-12-25T17:00:15.389Z,7.13
2018-12-25T17:02:56.015Z,6.87
2018-12-25T17:05:36.783Z,6.40
2018-12-25T17:08:18.064Z,7.60
2018-12-25T17:10:58.590Z,6.40
2018-12-25T17:13:39.009Z,6.90
2018-12-25T17:16:19.459Z,6.77
2018-12-25T17:18:59.920Z,6.83
2018-12-25T17:21:40.689Z,7.77
2018-12-25T17:24:21.484Z,7.27
2018-12-25T17:27:01.810Z,7.43
2018-12-25T17:29:42.675Z,7.80
2018-12-25T17:32:23.094Z,8.50
2018-12-25T17:35:03.681Z,8.27
2018-12-25T17:37:44.420Z,8.60
2018-12-25T17:40:25.250Z,8.53
2018-12-25T17:43:05.963Z,7.30
2018-12-25T17:45:46.535Z,9.07
2018-12-25T17:48:27.870Z,9.17
2018-12-25T17:51:09.081Z,9.03
2018-12-25T17:53:49.564Z,9.40
2018-12-25T17:56:37.562Z,9.23
2018-12-25T17:59:12.354Z,9.63
2018-12-25T18:01:51.229Z,9.47
2018-12-25T18:04:39.109Z,10.20
2018-12-25T18:07:26.995Z,10.00
2018-12-25T18:10:14.929Z,11.03
2018-12-25T18:13:02.785Z,10.50
2018-12-25T18:15:50.671Z,10.43
2018-12-25T18:21:32.345Z,12.47
2018-12-25T18:24:20.217Z,10.60
2018-12-25T18:27:08.092Z,12.10
2018-12-25T18:32:51.071Z,11.60
2018-12-25T18:35:38.965Z,12.83
2018-12-25T18:38:26.826Z,11.37
2018-12-25T18:44:13.241Z,11.87
2018-12-25T18:47:01.237Z,12.87
2018-12-25T18:49:49.299Z,11.73
2018-12-25T18:52:37.196Z,13.63
2018-12-25T18:55:25.114Z,13.13
2018-12-25T18:58:06.215Z,13.43
2018-12-25T19:00:47.065Z,12.00
2018-12-25T19:03:27.631Z,12.80
2018-12-25T19:06:08.389Z,13.47
2018-12-25T19:08:48.937Z,12.60
2018-12-25T19:11:29.663Z,14.07
2018-12-25T19:14:10.316Z,12.67
2018-12-25T19:16:51.639Z,12.27
2018-12-25T19:19:32.574Z,13.27
2018-12-25T19:22:13.566Z,13.37
2018-12-25T19:24:54.373Z,14.13
2018-12-25T19:27:34.963Z,13.00
2018-12-25T19:30:15.741Z,13.33
2018-12-25T19:32:59.270Z,13.80
2018-12-25T19:35:40.425Z,12.40
2018-12-25T19:38:21.001Z,13.70
2018-12-25T19:41:05.839Z,13.83
2018-12-25T19:43:44.459Z,13.40
2018-12-25T19:46:25.160Z,13.90
2018-12-25T19:49:05.916Z,14.47
2018-12-25T19:51:46.690Z,13.87
2018-12-25T19:54:27.240Z,14.60
2018-12-25T19:57:09.848Z,15.00
2018-12-25T19:59:50.177Z,14.30
2018-12-25T20:02:30.921Z,14.13
2018-12-25T20:05:11.451Z,14.27
2018-12-25T20:07:51.856Z,13.60
2018-12-25T20:10:32.900Z,13.63
2018-12-25T20:13:13.957Z,16.83
2018-12-25T20:15:54.477Z,14.70
2018-12-25T20:18:35.405Z,16.03
2018-12-25T20:21:15.756Z,14.70
2018-12-25T20:23:56.985Z,14.30
2018-12-25T20:26:37.651Z,14.93
2018-12-25T20:29:18.435Z,14.10
2018-12-25T20:31:59.061Z,14.53
2018-12-25T20:34:39.621Z,14.50
2018-12-25T20:37:20.198Z,14.50
2018-12-25T20:40:00.950Z,14.53
2018-12-25T20:42:42.275Z,14.20
2018-12-25T20:45:22.837Z,14.20
2018-12-25T20:48:03.704Z,14.17
2018-12-25T20:50:44.599Z,15.10
2018-12-25T20:53:25.111Z,14.27
2018-12-25T20:56:05.753Z,14.83
2018-12-25T20:58:46.455Z,15.90
2018-12-25T21:01:27.349Z,15.37
2018-12-25T21:04:08.036Z,14.10
2018-12-25T21:06:48.770Z,14.37
2018-12-25T21:09:29.646Z,14.37
2018-12-25T21:12:10.473Z,14.63
2018-12-25T21:14:51.162Z,14.10
2018-12-25T21:17:31.682Z,14.77
2018-12-25T21:20:12.426Z,14.77
2018-12-25T21:22:52.867Z,14.13
2018-12-25T21:25:33.220Z,15.67
2018-12-25T21:28:13.880Z,14.20
2018-12-25T21:30:54.608Z,14.83
2018-12-25T21:33:36.648Z,14.20
2018-12-25T21:36:17.071Z,14.33
2018-12-25T21:38:57.669Z,14.00
2018-12-25T21:41:38.506Z,14.20
2018-12-25T21:44:19.711Z,14.43
2018-12-25T21:47:00.508Z,14.03
2018-12-25T21:49:41.297Z,15.37
2018-12-25T21:52:22.475Z,14.73
2018-12-25T21:55:03.031Z,14.13
2018-12-25T21:57:44.697Z,14.90
2018-12-25T22:00:25.185Z,15.00
2018-12-25T22:03:05.709Z,14.83
2018-12-25T22:05:46.160Z,13.77
2018-12-25T22:08:26.540Z,13.97
2018-12-25T22:11:07.006Z,14.23
2018-12-25T22:13:47.747Z,13.53
2018-12-25T22:16:28.681Z,12.30
2018-12-25T22:19:09.226Z,12.53
2018-12-25T22:21:49.669Z,12.00
2018-12-25T22:24:28.621Z,11.50
2018-12-25T22:27:16.853Z,11.23
2018-12-25T22:30:05.440Z,10.70
2018-12-25T22:32:53.762Z,11.23
2018-12-25T22:35:41.676Z,10.57
2018-12-25T22:38:29.790Z,10.60
2018-12-25T22:41:17.681Z,9.53
2018-12-25T22:44:05.558Z,10.10
2018-12-25T22:46:53.445Z,10.37
2018-12-25T22:49:42.246Z,8.50
2018-12-25T22:52:30.170Z,7.97
2018-12-25T22:55:18.235Z,7.03
2018-12-25T22:58:06.117Z,7.03
2018-12-25T23:00:46.785Z,4.97
2018-12-25T23:03:27.736Z,5.37
2018-12-25T23:06:08.286Z,5.60
2018-12-25T23:08:48.929Z,4.43
2018-12-25T23:11:29.347Z,4.90
2018-12-25T23:14:09.980Z,5.77
2018-12-25T23:16:50.601Z,5.50
2018-12-25T23:19:31.404Z,6.00
2018-12-25T23:22:12.338Z,5.37
2018-12-25T23:24:52.879Z,4.83
2018-12-25T23:27:33.552Z,5.63
2018-12-25T23:30:14.144Z,5.37
2018-12-25T23:32:55.177Z,5.73
2018-12-25T23:35:36.001Z,6.37
2018-12-25T23:38:17.456Z,7.53
2018-12-25T23:40:57.990Z,7.20
2018-12-25T23:43:38.819Z,8.40
2018-12-25T23:46:19.954Z,7.80
2018-12-25T23:49:01.049Z,7.43
2018-12-25T23:51:42.099Z,8.27
2018-12-25T23:54:22.717Z,8.87
2018-12-25T23:57:03.606Z,8.37
2018-12-25T23:59:44.122Z,9.07
